sensor_id;sensor_type;location;lat;lon;timestamp;pressure;altitude;pressure_sealevel;temperature;humidity
54920;BME280;63804;53.120;8.764;2022-12-29T00:00:16;100103.28;;;9.86;55.92
54920;BME280;63804;53.120;8.764;2022-12-29T00:02:42;100107.22;;;10.05;55.37
54920;BME280;63804;53.120;8.764;2022-12-29T00:05:08;100099.94;;;9.93;55.69
54920;BME280;63804;53.120;8.764;2022-12-29T00:07:34;100094.34;;;10.21;54.83
54920;BME280;63804;53.120;8.764;2022-12-29T00:09:59;100085.31;;;10.17;55.00
54920;BME280;63804;53.120;8.764;2022-12-29T00:12:25;100092.59;;;10.13;55.31
54920;BME280;63804;53.120;8.764;2022-12-29T00:15:11;100091.19;;;10.19;54.91
54920;BME280;63804;53.120;8.764;2022-12-29T00:17:55;100082.88;;;10.31;54.63
54920;BME280;63804;53.120;8.764;2022-12-29T00:20:21;100077.59;;;10.38;54.46
54920;BME280;63804;53.120;8.764;2022-12-29T00:23:05;100073.94;;;10.50;54.33
54920;BME280;63804;53.120;8.764;2022-12-29T00:25:49;100072.41;;;10.33;54.71
54920;BME280;63804;53.120;8.764;2022-12-29T00:28:33;100072.59;;;9.89;56.27
54920;BME280;63804;53.120;8.764;2022-12-29T00:31:32;100073.38;;;9.90;56.19
54920;BME280;63804;53.120;8.764;2022-12-29T00:34:16;100070.91;;;10.36;55.00
54920;BME280;63804;53.120;8.764;2022-12-29T00:37:00;100060.50;;;10.42;54.77
54920;BME280;63804;53.120;8.764;2022-12-29T00:39:26;100059.50;;;10.30;55.29
54920;BME280;63804;53.120;8.764;2022-12-29T00:42:11;100061.13;;;10.35;55.31
54920;BME280;63804;53.120;8.764;2022-12-29T00:44:55;100068.56;;;10.54;54.59
54920;BME280;63804;53.120;8.764;2022-12-29T00:47:21;100063.94;;;10.58;54.82
54920;BME280;63804;53.120;8.764;2022-12-29T00:49:47;100056.13;;;10.37;55.78
54920;BME280;63804;53.120;8.764;2022-12-29T00:52:13;100054.69;;;10.63;54.90
54920;BME280;63804;53.120;8.764;2022-12-29T00:54:40;100056.47;;;10.55;54.77
54920;BME280;63804;53.120;8.764;2022-12-29T00:57:08;100049.16;;;10.59;55.01
54920;BME280;63804;53.120;8.764;2022-12-29T00:59:36;100047.66;;;10.42;55.22
54920;BME280;63804;53.120;8.764;2022-12-29T01:02:02;100042.25;;;10.26;56.18
54920;BME280;63804;53.120;8.764;2022-12-29T01:04:28;100034.81;;;10.43;55.98
54920;BME280;63804;53.120;8.764;2022-12-29T01:06:54;100037.69;;;10.30;56.16
54920;BME280;63804;53.120;8.764;2022-12-29T01:09:20;100034.16;;;10.49;55.35
54920;BME280;63804;53.120;8.764;2022-12-29T01:12:05;100035.44;;;10.55;55.37
54920;BME280;63804;53.120;8.764;2022-12-29T01:14:32;100022.28;;;10.61;55.40
54920;BME280;63804;53.120;8.764;2022-12-29T01:16:58;100032.19;;;10.69;55.00
54920;BME280;63804;53.120;8.764;2022-12-29T01:19:24;100023.38;;;10.56;55.17
54920;BME280;63804;53.120;8.764;2022-12-29T01:21:50;100017.19;;;10.60;55.34
54920;BME280;63804;53.120;8.764;2022-12-29T01:24:17;100023.81;;;10.59;55.22
54920;BME280;63804;53.120;8.764;2022-12-29T01:26:43;100035.28;;;10.68;55.02
54920;BME280;63804;53.120;8.764;2022-12-29T01:29:09;100022.75;;;10.83;54.66
54920;BME280;63804;53.120;8.764;2022-12-29T01:31:36;100008.00;;;10.87;54.55
54920;BME280;63804;53.120;8.764;2022-12-29T01:34:02;100006.94;;;10.53;55.54
54920;BME280;63804;53.120;8.764;2022-12-29T01:36:28;100007.09;;;10.41;55.70
54920;BME280;63804;53.120;8.764;2022-12-29T01:38:55;100005.38;;;10.52;55.50
54920;BME280;63804;53.120;8.764;2022-12-29T01:41:22;99996.53;;;10.59;55.15
54920;BME280;63804;53.120;8.764;2022-12-29T01:43:53;99989.66;;;10.45;55.65
54920;BME280;63804;53.120;8.764;2022-12-29T01:46:49;99996.09;;;10.56;55.15
54920;BME280;63804;53.120;8.764;2022-12-29T01:49:18;99985.75;;;10.66;55.06
54920;BME280;63804;53.120;8.764;2022-12-29T01:51:51;100002.19;;;10.69;54.94
54920;BME280;63804;53.120;8.764;2022-12-29T01:54:28;99991.13;;;10.82;54.63
54920;BME280;63804;53.120;8.764;2022-12-29T01:56:59;99978.22;;;10.79;54.80
54920;BME280;63804;53.120;8.764;2022-12-29T01:59:29;99974.31;;;10.80;54.88
54920;BME280;63804;53.120;8.764;2022-12-29T02:01:56;99973.59;;;10.83;54.70
54920;BME280;63804;53.120;8.764;2022-12-29T02:04:24;99977.78;;;10.77;54.61
54920;BME280;63804;53.120;8.764;2022-12-29T02:06:57;99960.78;;;10.87;54.76
54920;BME280;63804;53.120;8.764;2022-12-29T02:09:23;99963.75;;;10.78;54.68
54920;BME280;63804;53.120;8.764;2022-12-29T02:11:50;99959.91;;;10.79;54.88
54920;BME280;63804;53.120;8.764;2022-12-29T02:14:16;99959.34;;;10.93;54.49
54920;BME280;63804;53.120;8.764;2022-12-29T02:16:59;99953.47;;;10.71;54.69
54920;BME280;63804;53.120;8.764;2022-12-29T02:25:45;99947.25;;;10.71;54.68
54920;BME280;63804;53.120;8.764;2022-12-29T02:36:32;99936.66;;;10.89;54.39
54920;BME280;63804;53.120;8.764;2022-12-29T02:42:36;99939.69;;;10.84;54.66
54920;BME280;63804;53.120;8.764;2022-12-29T02:52:18;99939.63;;;10.80;54.65
54920;BME280;63804;53.120;8.764;2022-12-29T02:54:53;99941.81;;;10.94;54.42
54920;BME280;63804;53.120;8.764;2022-12-29T03:03:04;99926.94;;;11.15;53.69
54920;BME280;63804;53.120;8.764;2022-12-29T03:11:08;99915.91;;;11.07;53.84
54920;BME280;63804;53.120;8.764;2022-12-29T03:13:59;99903.91;;;10.89;54.07
54920;BME280;63804;53.120;8.764;2022-12-29T03:16:57;99896.09;;;11.14;53.54
54920;BME280;63804;53.120;8.764;2022-12-29T03:19:35;99894.84;;;11.08;53.68
54920;BME280;63804;53.120;8.764;2022-12-29T03:22:07;99886.72;;;10.88;54.59
54920;BME280;63804;53.120;8.764;2022-12-29T03:27:42;99889.31;;;11.04;54.21
54920;BME280;63804;53.120;8.764;2022-12-29T03:30:10;99887.25;;;10.74;54.92
54920;BME280;63804;53.120;8.764;2022-12-29T03:32:46;99891.28;;;10.81;54.84
54920;BME280;63804;53.120;8.764;2022-12-29T03:35:15;99872.84;;;10.97;54.23
54920;BME280;63804;53.120;8.764;2022-12-29T03:37:50;99870.34;;;11.15;53.94
54920;BME280;63804;53.120;8.764;2022-12-29T03:40:18;99869.78;;;11.02;53.98
54920;BME280;63804;53.120;8.764;2022-12-29T03:42:46;99863.75;;;11.16;53.78
54920;BME280;63804;53.120;8.764;2022-12-29T03:45:13;99855.81;;;11.07;54.31
54920;BME280;63804;53.120;8.764;2022-12-29T03:47:39;99867.88;;;11.06;54.18
54920;BME280;63804;53.120;8.764;2022-12-29T03:50:06;99872.66;;;10.86;55.01
54920;BME280;63804;53.120;8.764;2022-12-29T03:52:34;99865.88;;;11.03;54.49
54920;BME280;63804;53.120;8.764;2022-12-29T03:55:00;99867.06;;;11.02;54.96
54920;BME280;63804;53.120;8.764;2022-12-29T03:57:25;99875.00;;;10.88;55.72
54920;BME280;63804;53.120;8.764;2022-12-29T03:59:51;99858.91;;;11.06;55.09
54920;BME280;63804;53.120;8.764;2022-12-29T04:02:17;99855.28;;;10.98;55.63
54920;BME280;63804;53.120;8.764;2022-12-29T04:04:43;99858.00;;;10.98;55.93
54920;BME280;63804;53.120;8.764;2022-12-29T04:07:08;99850.13;;;10.93;56.05
54920;BME280;63804;53.120;8.764;2022-12-29T04:09:34;99853.19;;;10.88;56.25
54920;BME280;63804;53.120;8.764;2022-12-29T04:12:00;99847.09;;;10.98;56.29
54920;BME280;63804;53.120;8.764;2022-12-29T04:14:26;99846.34;;;11.01;56.44
54920;BME280;63804;53.120;8.764;2022-12-29T04:16:51;99846.63;;;10.69;57.04
54920;BME280;63804;53.120;8.764;2022-12-29T04:19:17;99838.84;;;10.71;57.17
54920;BME280;63804;53.120;8.764;2022-12-29T04:21:43;99838.81;;;10.91;56.72
54920;BME280;63804;53.120;8.764;2022-12-29T04:24:08;99833.94;;;11.04;56.18
54920;BME280;63804;53.120;8.764;2022-12-29T04:26:34;99837.03;;;11.02;56.59
54920;BME280;63804;53.120;8.764;2022-12-29T04:29:00;99837.22;;;10.90;56.87
54920;BME280;63804;53.120;8.764;2022-12-29T04:31:26;99850.50;;;10.68;57.30
54920;BME280;63804;53.120;8.764;2022-12-29T04:33:51;99848.22;;;10.70;57.48
54920;BME280;63804;53.120;8.764;2022-12-29T04:36:17;99846.88;;;10.84;57.15
54920;BME280;63804;53.120;8.764;2022-12-29T04:38:43;99840.03;;;10.70;57.39
54920;BME280;63804;53.120;8.764;2022-12-29T04:41:09;99847.63;;;10.81;56.91
54920;BME280;63804;53.120;8.764;2022-12-29T04:43:34;99839.31;;;11.00;56.33
54920;BME280;63804;53.120;8.764;2022-12-29T04:46:00;99845.78;;;11.15;55.67
54920;BME280;63804;53.120;8.764;2022-12-29T04:48:26;99838.16;;;11.01;56.29
54920;BME280;63804;53.120;8.764;2022-12-29T04:50:52;99851.47;;;11.03;56.01
54920;BME280;63804;53.120;8.764;2022-12-29T04:53:17;99855.91;;;10.88;56.51
54920;BME280;63804;53.120;8.764;2022-12-29T04:55:44;99839.31;;;11.00;56.16
54920;BME280;63804;53.120;8.764;2022-12-29T04:58:09;99853.53;;;10.63;57.01
54920;BME280;63804;53.120;8.764;2022-12-29T05:00:35;99840.94;;;11.05;55.67
54920;BME280;63804;53.120;8.764;2022-12-29T05:03:01;99838.47;;;11.23;55.05
54920;BME280;63804;53.120;8.764;2022-12-29T05:05:27;99851.22;;;11.15;55.26
54920;BME280;63804;53.120;8.764;2022-12-29T05:07:52;99853.47;;;11.06;55.14
54920;BME280;63804;53.120;8.764;2022-12-29T05:10:18;99847.19;;;11.05;55.42
54920;BME280;63804;53.120;8.764;2022-12-29T05:12:44;99845.41;;;11.17;55.07
54920;BME280;63804;53.120;8.764;2022-12-29T05:15:11;99843.41;;;11.14;55.01
54920;BME280;63804;53.120;8.764;2022-12-29T05:17:36;99853.09;;;11.07;55.55
54920;BME280;63804;53.120;8.764;2022-12-29T05:20:09;99851.41;;;11.26;54.75
54920;BME280;63804;53.120;8.764;2022-12-29T05:22:35;99854.91;;;11.00;55.93
54920;BME280;63804;53.120;8.764;2022-12-29T05:25:01;99854.75;;;10.89;56.33
54920;BME280;63804;53.120;8.764;2022-12-29T05:27:27;99856.31;;;10.90;56.59
54920;BME280;63804;53.120;8.764;2022-12-29T05:29:53;99853.22;;;10.91;56.41
54920;BME280;63804;53.120;8.764;2022-12-29T05:32:19;99862.59;;;10.90;56.57
54920;BME280;63804;53.120;8.764;2022-12-29T05:34:45;99861.47;;;10.95;56.60
54920;BME280;63804;53.120;8.764;2022-12-29T05:37:10;99870.28;;;10.85;56.57
54920;BME280;63804;53.120;8.764;2022-12-29T05:39:43;99860.78;;;11.02;56.15
54920;BME280;63804;53.120;8.764;2022-12-29T05:42:08;99866.13;;;11.18;55.57
54920;BME280;63804;53.120;8.764;2022-12-29T05:44:34;99874.34;;;11.21;55.46
54920;BME280;63804;53.120;8.764;2022-12-29T05:47:00;99857.56;;;11.19;55.26
54920;BME280;63804;53.120;8.764;2022-12-29T05:49:26;99862.13;;;11.11;55.47
54920;BME280;63804;53.120;8.764;2022-12-29T05:51:51;99874.50;;;11.05;55.82
54920;BME280;63804;53.120;8.764;2022-12-29T05:54:17;99856.13;;;11.02;55.80
54920;BME280;63804;53.120;8.764;2022-12-29T05:56:43;99851.97;;;11.12;55.60
54920;BME280;63804;53.120;8.764;2022-12-29T05:59:09;99844.25;;;11.18;55.55
54920;BME280;63804;53.120;8.764;2022-12-29T06:01:34;99856.75;;;11.19;55.39
54920;BME280;63804;53.120;8.764;2022-12-29T06:04:00;99847.09;;;11.25;55.26
54920;BME280;63804;53.120;8.764;2022-12-29T06:06:26;99841.69;;;11.02;55.84
54920;BME280;63804;53.120;8.764;2022-12-29T06:08:51;99849.50;;;11.03;55.67
54920;BME280;63804;53.120;8.764;2022-12-29T06:11:17;99843.00;;;11.11;55.50
54920;BME280;63804;53.120;8.764;2022-12-29T06:13:43;99838.56;;;11.03;55.90
54920;BME280;63804;53.120;8.764;2022-12-29T06:16:09;99829.97;;;11.01;55.70
54920;BME280;63804;53.120;8.764;2022-12-29T06:18:34;99823.47;;;11.09;55.54
54920;BME280;63804;53.120;8.764;2022-12-29T06:21:02;99826.25;;;10.63;57.16
54920;BME280;63804;53.120;8.764;2022-12-29T06:23:28;99834.28;;;11.02;56.00
54920;BME280;63804;53.120;8.764;2022-12-29T06:25:54;99836.66;;;11.04;56.00
54920;BME280;63804;53.120;8.764;2022-12-29T06:28:20;99826.19;;;10.83;56.73
54920;BME280;63804;53.120;8.764;2022-12-29T06:30:46;99843.00;;;11.11;55.82
54920;BME280;63804;53.120;8.764;2022-12-29T06:33:13;99856.38;;;11.20;55.60
54920;BME280;63804;53.120;8.764;2022-12-29T06:35:39;99856.00;;;11.22;55.84
54920;BME280;63804;53.120;8.764;2022-12-29T06:38:05;99848.56;;;11.19;56.03
54920;BME280;63804;53.120;8.764;2022-12-29T06:40:31;99856.81;;;11.22;55.93
54920;BME280;63804;53.120;8.764;2022-12-29T06:42:57;99867.78;;;11.26;55.72
54920;BME280;63804;53.120;8.764;2022-12-29T06:45:24;99870.09;;;11.24;55.67
54920;BME280;63804;53.120;8.764;2022-12-29T06:47:50;99866.44;;;11.13;55.93
54920;BME280;63804;53.120;8.764;2022-12-29T06:50:15;99870.72;;;11.14;56.21
54920;BME280;63804;53.120;8.764;2022-12-29T06:52:41;99863.75;;;11.16;56.09
54920;BME280;63804;53.120;8.764;2022-12-29T06:55:07;99859.38;;;11.11;56.16
54920;BME280;63804;53.120;8.764;2022-12-29T06:57:33;99849.63;;;11.10;55.98
54920;BME280;63804;53.120;8.764;2022-12-29T06:59:59;99848.47;;;11.11;56.12
54920;BME280;63804;53.120;8.764;2022-12-29T07:02:24;99866.19;;;10.98;55.70
54920;BME280;63804;53.120;8.764;2022-12-29T07:04:51;99867.47;;;11.04;55.72
54920;BME280;63804;53.120;8.764;2022-12-29T07:07:18;99859.69;;;11.06;55.11
54920;BME280;63804;53.120;8.764;2022-12-29T07:09:45;99860.84;;;10.79;55.97
54920;BME280;63804;53.120;8.764;2022-12-29T07:12:10;99864.63;;;10.74;55.96
54920;BME280;63804;53.120;8.764;2022-12-29T07:14:36;99862.09;;;10.85;55.75
54920;BME280;63804;53.120;8.764;2022-12-29T07:17:02;99871.00;;;10.82;55.91
54920;BME280;63804;53.120;8.764;2022-12-29T07:19:31;99864.72;;;10.78;55.61
54920;BME280;63804;53.120;8.764;2022-12-29T07:21:56;99869.44;;;10.81;55.78
54920;BME280;63804;53.120;8.764;2022-12-29T07:24:22;99862.16;;;10.65;56.12
54920;BME280;63804;53.120;8.764;2022-12-29T07:26:48;99878.69;;;10.53;56.16
54920;BME280;63804;53.120;8.764;2022-12-29T07:29:14;99878.72;;;10.33;56.76
54920;BME280;63804;53.120;8.764;2022-12-29T07:31:39;99880.44;;;10.42;56.25
54920;BME280;63804;53.120;8.764;2022-12-29T07:34:05;99890.47;;;10.57;55.75
54920;BME280;63804;53.120;8.764;2022-12-29T07:36:31;99892.59;;;10.67;55.32
54920;BME280;63804;53.120;8.764;2022-12-29T07:38:56;99900.94;;;10.55;55.51
54920;BME280;63804;53.120;8.764;2022-12-29T07:41:22;99898.00;;;10.21;56.31
54920;BME280;63804;53.120;8.764;2022-12-29T07:43:48;99898.88;;;10.25;56.23
54920;BME280;63804;53.120;8.764;2022-12-29T07:46:16;99906.22;;;10.44;55.66
54920;BME280;63804;53.120;8.764;2022-12-29T07:48:42;99901.38;;;10.57;55.24
54920;BME280;63804;53.120;8.764;2022-12-29T07:51:08;99910.00;;;10.59;55.42
54920;BME280;63804;53.120;8.764;2022-12-29T07:53:33;99919.16;;;10.70;55.04
54920;BME280;63804;53.120;8.764;2022-12-29T07:55:59;99924.34;;;10.56;55.52
54920;BME280;63804;53.120;8.764;2022-12-29T07:58:25;99927.09;;;10.76;54.75
54920;BME280;63804;53.120;8.764;2022-12-29T08:00:56;99920.44;;;10.77;54.69
54920;BME280;63804;53.120;8.764;2022-12-29T08:03:23;99929.09;;;10.59;54.84
54920;BME280;63804;53.120;8.764;2022-12-29T08:05:50;99927.50;;;10.78;54.21
54920;BME280;63804;53.120;8.764;2022-12-29T08:08:16;99933.13;;;10.65;54.36
54920;BME280;63804;53.120;8.764;2022-12-29T08:10:42;99926.06;;;10.64;54.25
54920;BME280;63804;53.120;8.764;2022-12-29T08:13:08;99932.50;;;10.52;54.32
54920;BME280;63804;53.120;8.764;2022-12-29T08:15:34;99938.41;;;10.58;54.36
54920;BME280;63804;53.120;8.764;2022-12-29T08:18:00;99927.72;;;10.69;53.45
54920;BME280;63804;53.120;8.764;2022-12-29T08:20:26;99945.59;;;10.66;53.19
54920;BME280;63804;53.120;8.764;2022-12-29T08:22:52;99939.81;;;10.48;53.51
54920;BME280;63804;53.120;8.764;2022-12-29T08:25:17;99948.81;;;10.72;53.08
54920;BME280;63804;53.120;8.764;2022-12-29T08:27:44;99953.06;;;10.69;53.09
54920;BME280;63804;53.120;8.764;2022-12-29T08:30:11;99954.50;;;10.83;52.52
54920;BME280;63804;53.120;8.764;2022-12-29T08:32:36;99953.97;;;10.54;53.15
54920;BME280;63804;53.120;8.764;2022-12-29T08:35:02;99968.09;;;10.60;53.18
54920;BME280;63804;53.120;8.764;2022-12-29T08:37:28;99966.28;;;10.67;52.45
54920;BME280;63804;53.120;8.764;2022-12-29T08:39:54;99958.53;;;10.50;52.66
54920;BME280;63804;53.120;8.764;2022-12-29T08:42:19;99969.31;;;10.43;53.17
54920;BME280;63804;53.120;8.764;2022-12-29T08:44:45;99963.56;;;10.28;53.35
54920;BME280;63804;53.120;8.764;2022-12-29T08:47:11;99973.19;;;10.42;53.04
54920;BME280;63804;53.120;8.764;2022-12-29T08:49:37;99972.69;;;10.55;52.55
54920;BME280;63804;53.120;8.764;2022-12-29T08:52:03;99981.72;;;10.60;52.55
54920;BME280;63804;53.120;8.764;2022-12-29T08:54:29;99981.19;;;10.73;52.17
54920;BME280;63804;53.120;8.764;2022-12-29T08:56:55;99978.69;;;10.65;52.32
54920;BME280;63804;53.120;8.764;2022-12-29T08:59:21;99985.88;;;10.73;52.22
54920;BME280;63804;53.120;8.764;2022-12-29T09:01:55;99980.41;;;10.92;51.36
54920;BME280;63804;53.120;8.764;2022-12-29T09:04:21;99987.50;;;10.97;51.33
54920;BME280;63804;53.120;8.764;2022-12-29T09:06:48;99971.84;;;10.94;51.50
54920;BME280;63804;53.120;8.764;2022-12-29T09:09:14;99987.41;;;10.51;52.07
54920;BME280;63804;53.120;8.764;2022-12-29T09:11:41;99980.53;;;10.37;52.61
54920;BME280;63804;53.120;8.764;2022-12-29T09:14:07;99984.81;;;10.58;51.49
54920;BME280;63804;53.120;8.764;2022-12-29T09:16:33;100004.47;;;10.87;51.33
54920;BME280;63804;53.120;8.764;2022-12-29T09:18:59;100008.44;;;10.89;50.96
54920;BME280;63804;53.120;8.764;2022-12-29T09:21:25;100011.69;;;10.99;50.69
54920;BME280;63804;53.120;8.764;2022-12-29T09:23:51;100013.22;;;10.96;50.73
54920;BME280;63804;53.120;8.764;2022-12-29T09:26:17;100017.47;;;10.93;50.57
54920;BME280;63804;53.120;8.764;2022-12-29T09:28:55;100008.78;;;10.88;50.55
54920;BME280;63804;53.120;8.764;2022-12-29T09:31:22;100005.09;;;11.00;50.60
54920;BME280;63804;53.120;8.764;2022-12-29T09:33:48;100002.91;;;10.86;50.58
54920;BME280;63804;53.120;8.764;2022-12-29T09:36:13;99998.44;;;10.97;50.34
54920;BME280;63804;53.120;8.764;2022-12-29T09:38:39;100001.09;;;11.17;49.38
54920;BME280;63804;53.120;8.764;2022-12-29T09:41:20;99998.53;;;11.04;48.88
54920;BME280;63804;53.120;8.764;2022-12-29T09:46:34;100000.50;;;11.04;49.63
54920;BME280;63804;53.120;8.764;2022-12-29T09:51:36;100016.22;;;11.10;49.47
54920;BME280;63804;53.120;8.764;2022-12-29T09:57:18;100022.63;;;10.99;48.93
54920;BME280;63804;53.120;8.764;2022-12-29T09:59:48;100020.41;;;11.04;48.92
54920;BME280;63804;53.120;8.764;2022-12-29T10:02:27;100015.91;;;11.16;48.71
54920;BME280;63804;53.120;8.764;2022-12-29T10:04:55;100007.34;;;11.17;49.03
54920;BME280;63804;53.120;8.764;2022-12-29T10:07:52;100013.53;;;10.91;49.20
54920;BME280;63804;53.120;8.764;2022-12-29T10:10:36;100004.72;;;11.01;48.98
54920;BME280;63804;53.120;8.764;2022-12-29T10:13:30;99998.28;;;10.90;49.12
54920;BME280;63804;53.120;8.764;2022-12-29T10:16:31;99992.34;;;10.84;49.17
54920;BME280;63804;53.120;8.764;2022-12-29T10:24:56;99997.00;;;11.30;48.47
54920;BME280;63804;53.120;8.764;2022-12-29T10:27:23;100006.78;;;10.85;48.75
54920;BME280;63804;53.120;8.764;2022-12-29T10:29:55;100001.22;;;11.24;48.04
54920;BME280;63804;53.120;8.764;2022-12-29T10:35:06;100011.53;;;10.88;47.44
54920;BME280;63804;53.120;8.764;2022-12-29T10:37:59;100010.97;;;11.02;46.67
54920;BME280;63804;53.120;8.764;2022-12-29T10:40:36;100016.63;;;11.13;47.43
54920;BME280;63804;53.120;8.764;2022-12-29T10:43:31;100011.97;;;11.13;47.32
54920;BME280;63804;53.120;8.764;2022-12-29T10:46:05;100023.81;;;11.21;47.27
54920;BME280;63804;53.120;8.764;2022-12-29T10:48:34;100021.19;;;11.28;47.67
54920;BME280;63804;53.120;8.764;2022-12-29T10:51:08;100022.78;;;11.29;47.84
54920;BME280;63804;53.120;8.764;2022-12-29T10:53:45;100019.00;;;11.14;48.07
54920;BME280;63804;53.120;8.764;2022-12-29T10:56:29;100017.66;;;11.04;48.56
54920;BME280;63804;53.120;8.764;2022-12-29T10:59:01;100031.69;;;11.03;49.15
54920;BME280;63804;53.120;8.764;2022-12-29T11:01:37;100027.06;;;10.84;49.40
54920;BME280;63804;53.120;8.764;2022-12-29T11:06:52;100020.63;;;10.96;49.25
54920;BME280;63804;53.120;8.764;2022-12-29T11:09:27;100021.84;;;10.98;49.37
54920;BME280;63804;53.120;8.764;2022-12-29T11:11:53;100010.13;;;10.98;49.55
54920;BME280;63804;53.120;8.764;2022-12-29T11:14:25;100015.78;;;11.08;49.49
54920;BME280;63804;53.120;8.764;2022-12-29T11:17:00;100016.22;;;11.10;49.36
54920;BME280;63804;53.120;8.764;2022-12-29T11:19:31;100013.03;;;11.08;49.44
54920;BME280;63804;53.120;8.764;2022-12-29T11:22:24;100010.50;;;10.96;49.22
54920;BME280;63804;53.120;8.764;2022-12-29T11:24:52;100003.75;;;11.13;49.19
54920;BME280;63804;53.120;8.764;2022-12-29T11:27:19;100011.63;;;10.95;49.33
54920;BME280;63804;53.120;8.764;2022-12-29T11:29:49;100002.41;;;11.03;48.97
54920;BME280;63804;53.120;8.764;2022-12-29T11:32:23;100000.88;;;11.02;48.52
54920;BME280;63804;53.120;8.764;2022-12-29T11:34:50;99992.53;;;10.95;49.13
54920;BME280;63804;53.120;8.764;2022-12-29T11:37:44;99992.38;;;11.07;48.46
54920;BME280;63804;53.120;8.764;2022-12-29T11:40:18;99983.97;;;11.20;48.07
54920;BME280;63804;53.120;8.764;2022-12-29T11:42:52;99993.50;;;11.29;47.58
54920;BME280;63804;53.120;8.764;2022-12-29T11:45:24;100009.84;;;11.26;47.84
54920;BME280;63804;53.120;8.764;2022-12-29T11:47:56;99994.28;;;11.30;47.61
54920;BME280;63804;53.120;8.764;2022-12-29T11:50:29;100001.03;;;11.13;48.14
54920;BME280;63804;53.120;8.764;2022-12-29T11:53:13;100002.88;;;11.32;47.11
54920;BME280;63804;53.120;8.764;2022-12-29T11:55:50;100002.31;;;10.96;47.77
54920;BME280;63804;53.120;8.764;2022-12-29T11:58:17;100006.91;;;11.38;47.25
54920;BME280;63804;53.120;8.764;2022-12-29T12:00:43;99996.50;;;11.21;47.27
54920;BME280;63804;53.120;8.764;2022-12-29T12:03:18;100000.72;;;11.41;46.91
54920;BME280;63804;53.120;8.764;2022-12-29T12:05:50;100008.50;;;11.39;46.55
54920;BME280;63804;53.120;8.764;2022-12-29T12:08:41;100010.50;;;11.19;46.18
54920;BME280;63804;53.120;8.764;2022-12-29T12:14:15;100026.69;;;11.08;46.51
54920;BME280;63804;53.120;8.764;2022-12-29T12:16:47;100006.91;;;11.38;46.72
54920;BME280;63804;53.120;8.764;2022-12-29T12:22:31;100012.56;;;11.49;46.25
54920;BME280;63804;53.120;8.764;2022-12-29T12:25:17;100018.16;;;11.60;45.68
54920;BME280;63804;53.120;8.764;2022-12-29T12:30:27;100027.06;;;11.30;46.76
54920;BME280;63804;53.120;8.764;2022-12-29T12:33:04;100037.91;;;11.03;46.88
54920;BME280;63804;53.120;8.764;2022-12-29T12:41:39;100046.75;;;11.39;47.80
54920;BME280;63804;53.120;8.764;2022-12-29T12:44:28;100062.16;;;11.28;47.99
54920;BME280;63804;53.120;8.764;2022-12-29T12:47:13;100073.91;;;11.32;48.02
54920;BME280;63804;53.120;8.764;2022-12-29T12:55:30;100080.63;;;11.35;48.63
54920;BME280;63804;53.120;8.764;2022-12-29T13:01:05;100099.22;;;11.06;49.60
54920;BME280;63804;53.120;8.764;2022-12-29T13:04:26;100103.16;;;11.08;49.94
54920;BME280;63804;53.120;8.764;2022-12-29T13:07:08;100113.97;;;11.01;50.68
54920;BME280;63804;53.120;8.764;2022-12-29T13:09:48;100115.81;;;11.17;50.39
54920;BME280;63804;53.120;8.764;2022-12-29T13:12:33;100118.84;;;10.92;50.44
54920;BME280;63804;53.120;8.764;2022-12-29T13:18:05;100124.94;;;11.05;50.10
54920;BME280;63804;53.120;8.764;2022-12-29T13:20:49;100129.50;;;10.97;49.91
54920;BME280;63804;53.120;8.764;2022-12-29T13:23:40;100136.66;;;11.05;49.58
54920;BME280;63804;53.120;8.764;2022-12-29T13:28:59;100147.88;;;11.00;49.79
54920;BME280;63804;53.120;8.764;2022-12-29T13:35:07;100141.69;;;11.03;49.60
54920;BME280;63804;53.120;8.764;2022-12-29T13:37:30;100152.25;;;11.05;49.50
54920;BME280;63804;53.120;8.764;2022-12-29T13:40:13;100151.69;;;10.96;50.14
54920;BME280;63804;53.120;8.764;2022-12-29T13:42:40;100176.75;;;11.01;50.15
54920;BME280;63804;53.120;8.764;2022-12-29T13:45:14;100173.44;;;11.11;49.71
54920;BME280;63804;53.120;8.764;2022-12-29T13:47:46;100177.34;;;11.10;49.86
54920;BME280;63804;53.120;8.764;2022-12-29T13:50:18;100179.50;;;11.01;50.02
54920;BME280;63804;53.120;8.764;2022-12-29T13:53:10;100196.25;;;11.00;50.14
54920;BME280;63804;53.120;8.764;2022-12-29T13:58:30;100196.72;;;11.05;49.30
54920;BME280;63804;53.120;8.764;2022-12-29T14:01:03;100201.72;;;11.19;49.17
54920;BME280;63804;53.120;8.764;2022-12-29T14:06:13;100211.81;;;11.19;48.97
54920;BME280;63804;53.120;8.764;2022-12-29T14:08:40;100219.31;;;11.41;48.76
54920;BME280;63804;53.120;8.764;2022-12-29T14:11:10;100208.44;;;11.25;48.49
54920;BME280;63804;53.120;8.764;2022-12-29T14:13:38;100220.88;;;11.03;48.96
54920;BME280;63804;53.120;8.764;2022-12-29T14:16:06;100230.81;;;11.11;48.51
54920;BME280;63804;53.120;8.764;2022-12-29T14:18:34;100220.03;;;10.99;48.74
54920;BME280;63804;53.120;8.764;2022-12-29T14:23:46;100234.59;;;11.07;47.89
54920;BME280;63804;53.120;8.764;2022-12-29T14:26:33;100238.84;;;11.04;47.87
54920;BME280;63804;53.120;8.764;2022-12-29T14:31:42;100240.25;;;11.14;48.04
54920;BME280;63804;53.120;8.764;2022-12-29T14:36:53;100265.00;;;11.05;48.40
54920;BME280;63804;53.120;8.764;2022-12-29T14:39:42;100271.03;;;10.95;48.33
54920;BME280;63804;53.120;8.764;2022-12-29T14:47:34;100271.28;;;11.06;48.02
54920;BME280;63804;53.120;8.764;2022-12-29T14:50:07;100281.44;;;10.89;48.53
54920;BME280;63804;53.120;8.764;2022-12-29T14:53:00;100277.03;;;10.85;48.60
54920;BME280;63804;53.120;8.764;2022-12-29T14:55:45;100291.69;;;10.77;49.46
54920;BME280;63804;53.120;8.764;2022-12-29T14:58:26;100294.13;;;10.82;48.96
54920;BME280;63804;53.120;8.764;2022-12-29T15:00:54;100296.94;;;10.85;48.96
54920;BME280;63804;53.120;8.764;2022-12-29T15:03:38;100286.84;;;10.86;49.24